createdAt,value
2022-09-29T00:01:09.463Z,71.10
2022-09-29T00:03:37.453Z,71.00
2022-09-29T00:06:10.877Z,70.70
2022-09-29T00:08:38.634Z,70.00
2022-09-29T00:11:14.044Z,69.90
2022-09-29T00:13:41.662Z,69.90
2022-09-29T00:16:10.735Z,70.00
2022-09-29T00:18:38.097Z,70.20
2022-09-29T00:21:08.347Z,70.20
2022-09-29T00:23:36.273Z,70.20
2022-09-29T00:26:31.641Z,70.20
2022-09-29T00:28:59.880Z,70.00
2022-09-29T00:31:29.698Z,69.80
2022-09-29T00:33:57.777Z,69.50
2022-09-29T00:36:27.894Z,69.10
2022-09-29T00:38:55.345Z,69.20
2022-09-29T00:41:25.775Z,69.10
2022-09-29T00:44:08.263Z,68.90
2022-09-29T00:46:54.747Z,68.90
2022-09-29T00:49:40.464Z,68.80
2022-09-29T00:52:39.509Z,68.50
2022-09-29T00:55:38.074Z,68.30
2022-09-29T00:58:32.717Z,68.30
2022-09-29T01:01:00.397Z,68.20
2022-09-29T01:03:33.207Z,68.30
2022-09-29T01:06:07.029Z,68.40
2022-09-29T01:08:41.689Z,68.60
2022-09-29T01:11:11.520Z,68.70
2022-09-29T01:13:41.912Z,68.90
2022-09-29T01:16:10.035Z,69.00
2022-09-29T01:18:37.547Z,69.10
2022-09-29T01:21:16.096Z,69.00
2022-09-29T01:24:16.583Z,68.70
2022-09-29T01:27:06.709Z,68.70
2022-09-29T01:29:42.931Z,68.60
2022-09-29T01:32:18.293Z,68.80
2022-09-29T01:35:00.302Z,68.80
2022-09-29T01:37:46.092Z,68.60
2022-09-29T01:40:28.944Z,68.50
2022-09-29T01:43:05.673Z,68.70
2022-09-29T01:45:36.000Z,68.80
2022-09-29T01:48:18.695Z,69.00
2022-09-29T01:50:52.968Z,69.10
2022-09-29T01:53:33.629Z,69.10
2022-09-29T01:56:07.316Z,69.00
2022-09-29T01:58:52.927Z,68.90
2022-09-29T02:01:24.358Z,69.00
2022-09-29T02:04:00.611Z,69.20
2022-09-29T02:06:36.671Z,69.30
2022-09-29T02:09:09.475Z,69.30
2022-09-29T02:11:40.364Z,69.30
2022-09-29T02:14:13.475Z,69.30
2022-09-29T02:16:58.023Z,69.30
2022-09-29T02:19:27.380Z,69.50
2022-09-29T02:21:55.624Z,69.50
2022-09-29T02:24:25.423Z,69.50
2022-09-29T02:26:52.788Z,69.40
2022-09-29T02:29:20.741Z,69.40
2022-09-29T02:31:49.347Z,69.10
2022-09-29T02:34:19.105Z,68.60
2022-09-29T02:37:02.009Z,68.60
2022-09-29T02:39:42.211Z,68.40
2022-09-29T02:42:27.767Z,68.20
2022-09-29T02:45:13.834Z,67.60
2022-09-29T02:47:59.228Z,66.90
2022-09-29T02:50:29.275Z,66.90
2022-09-29T02:53:13.558Z,66.70
2022-09-29T02:56:03.280Z,66.60
2022-09-29T02:58:46.209Z,66.60
2022-09-29T03:01:16.768Z,66.60
2022-09-29T03:03:44.584Z,66.90
2022-09-29T03:06:13.862Z,67.10
2022-09-29T03:08:41.122Z,67.20
2022-09-29T03:11:08.492Z,66.60
2022-09-29T03:13:35.584Z,66.00
2022-09-29T03:16:02.827Z,65.60
2022-09-29T03:18:30.846Z,65.50
2022-09-29T03:20:58.091Z,65.50
2022-09-29T03:23:25.696Z,65.10
2022-09-29T03:25:52.985Z,65.20
2022-09-29T03:28:21.640Z,65.30
2022-09-29T03:30:49.466Z,65.30
2022-09-29T03:33:18.664Z,65.00
2022-09-29T03:35:45.789Z,64.40
2022-09-29T03:38:12.924Z,64.30
2022-09-29T03:40:40.473Z,64.40
2022-09-29T03:43:07.753Z,64.80
2022-09-29T03:45:35.445Z,65.30
2022-09-29T03:48:02.901Z,65.40
2022-09-29T03:50:31.768Z,65.40
2022-09-29T03:52:59.136Z,65.60
2022-09-29T03:55:26.410Z,65.50
2022-09-29T03:57:54.795Z,65.70
2022-09-29T04:00:27.422Z,66.10
2022-09-29T04:02:55.491Z,66.20
2022-09-29T04:05:23.020Z,66.10
2022-09-29T04:07:50.737Z,66.40
2022-09-29T04:10:17.906Z,66.60
2022-09-29T04:12:45.136Z,66.80
2022-09-29T04:15:12.281Z,67.00
2022-09-29T04:17:39.492Z,67.40
2022-09-29T04:20:07.989Z,67.60
2022-09-29T04:22:35.295Z,67.50
2022-09-29T04:25:02.451Z,67.40
2022-09-29T04:27:29.593Z,67.60
2022-09-29T04:29:58.071Z,67.40
2022-09-29T04:32:25.353Z,67.10
2022-09-29T04:34:52.747Z,67.10
2022-09-29T04:37:20.186Z,67.30
2022-09-29T04:39:47.376Z,67.40
2022-09-29T04:42:14.706Z,67.40
2022-09-29T04:44:41.900Z,67.40
2022-09-29T04:47:09.311Z,67.30
2022-09-29T04:49:36.475Z,67.10
2022-09-29T04:52:04.732Z,67.00
2022-09-29T04:54:37.635Z,67.00
2022-09-29T04:57:06.554Z,67.20
2022-09-29T04:59:34.113Z,67.30
2022-09-29T05:02:01.373Z,67.10
2022-09-29T05:04:30.237Z,67.30
2022-09-29T05:06:57.639Z,66.80
2022-09-29T05:09:25.518Z,66.60
2022-09-29T05:11:53.707Z,67.60
2022-09-29T05:14:20.894Z,68.30
2022-09-29T05:16:48.152Z,68.80
2022-09-29T05:19:15.714Z,69.60
2022-09-29T05:21:43.009Z,70.40
2022-09-29T05:24:10.440Z,71.90
2022-09-29T05:26:37.768Z,72.80
2022-09-29T05:29:05.112Z,72.30
2022-09-29T05:31:32.879Z,71.70
2022-09-29T05:34:00.142Z,70.90
2022-09-29T05:36:27.514Z,70.10
2022-09-29T05:38:54.875Z,69.40
2022-09-29T05:41:24.865Z,68.70
2022-09-29T05:43:55.255Z,68.00
2022-09-29T05:46:23.536Z,67.20
2022-09-29T05:48:54.148Z,66.60
2022-09-29T05:51:26.821Z,66.40
2022-09-29T05:53:54.720Z,66.20
2022-09-29T05:56:26.844Z,66.10
2022-09-29T05:58:55.013Z,65.80
2022-09-29T06:01:24.898Z,65.50
2022-09-29T06:03:55.095Z,65.00
2022-09-29T06:06:25.715Z,65.00
2022-09-29T06:08:53.468Z,64.50
2022-09-29T06:11:31.699Z,64.00
2022-09-29T06:13:59.658Z,63.50
2022-09-29T06:16:32.851Z,63.40
2022-09-29T06:19:01.531Z,62.90
2022-09-29T06:21:30.304Z,62.70
2022-09-29T06:23:58.687Z,62.20
2022-09-29T06:26:27.615Z,62.10
2022-09-29T06:28:55.872Z,62.20
2022-09-29T06:31:26.051Z,62.20
2022-09-29T06:33:56.273Z,61.90
2022-09-29T06:36:49.112Z,61.70
2022-09-29T06:39:17.072Z,61.60
2022-09-29T06:41:52.084Z,61.40
2022-09-29T06:44:20.850Z,61.30
2022-09-29T06:46:48.753Z,60.60
2022-09-29T06:49:16.885Z,59.80
2022-09-29T06:51:46.436Z,59.50
2022-09-29T06:54:16.256Z,59.60
2022-09-29T06:56:46.506Z,59.00
2022-09-29T06:59:13.756Z,59.10
2022-09-29T07:01:40.981Z,58.90
2022-09-29T07:04:08.543Z,58.50
2022-09-29T07:06:35.791Z,58.70
2022-09-29T07:09:03.296Z,58.50
2022-09-29T07:11:30.811Z,58.30
2022-09-29T07:13:58.079Z,58.30
2022-09-29T07:16:25.521Z,58.30
2022-09-29T07:18:53.380Z,58.10
2022-09-29T07:21:21.622Z,57.90
2022-09-29T07:23:49.169Z,57.60
2022-09-29T07:26:17.921Z,57.50
2022-09-29T07:28:46.419Z,57.30
2022-09-29T07:31:17.975Z,57.40
2022-09-29T07:33:45.645Z,56.80
2022-09-29T07:36:13.807Z,56.60
2022-09-29T07:38:41.076Z,55.90
2022-09-29T07:41:11.799Z,56.10
2022-09-29T07:43:39.863Z,56.30
2022-09-29T07:46:08.151Z,56.20
2022-09-29T07:48:36.538Z,56.10
2022-09-29T07:51:18.408Z,56.20
2022-09-29T07:53:46.418Z,56.60
2022-09-29T07:56:17.353Z,57.20
2022-09-29T07:58:46.597Z,56.80
2022-09-29T08:01:16.132Z,56.40
2022-09-29T08:03:49.520Z,56.90
2022-09-29T08:06:18.250Z,57.10
2022-09-29T08:08:59.403Z,56.70
2022-09-29T08:11:32.498Z,56.80
2022-09-29T08:14:01.162Z,56.20
2022-09-29T08:16:30.906Z,56.20
2022-09-29T08:18:59.068Z,56.50
2022-09-29T08:21:26.518Z,56.60
2022-09-29T08:23:53.684Z,55.90
2022-09-29T08:26:38.367Z,55.70
2022-09-29T08:29:09.076Z,54.90
2022-09-29T08:31:38.406Z,54.60
2022-09-29T08:34:06.850Z,54.40
2022-09-29T08:36:34.706Z,54.70
2022-09-29T08:39:02.690Z,55.00
2022-09-29T08:41:29.802Z,55.10
2022-09-29T08:44:36.354Z,54.70
2022-09-29T08:47:26.917Z,54.90
2022-09-29T08:50:11.111Z,54.80
2022-09-29T08:52:52.117Z,54.70
2022-09-29T08:55:21.960Z,54.40
2022-09-29T08:57:58.532Z,53.80
2022-09-29T09:00:55.125Z,53.90
2022-09-29T09:03:51.500Z,54.80
2022-09-29T09:06:30.916Z,54.90
2022-09-29T09:09:30.231Z,55.00
2022-09-29T09:12:12.562Z,54.30
2022-09-29T09:15:00.954Z,53.60
2022-09-29T09:18:13.532Z,53.30
2022-09-29T09:21:06.682Z,52.70
2022-09-29T09:24:04.514Z,52.30
2022-09-29T09:26:39.939Z,51.80
2022-09-29T09:29:42.612Z,51.60
2022-09-29T09:32:12.563Z,51.50
2022-09-29T09:34:51.846Z,50.90
2022-09-29T09:37:28.107Z,50.70
2022-09-29T09:40:15.013Z,51.30
2022-09-29T09:42:45.828Z,51.60
2022-09-29T09:45:15.131Z,52.40
2022-09-29T09:47:49.579Z,53.10
2022-09-29T09:50:20.032Z,53.70
2022-09-29T09:53:01.242Z,54.00
2022-09-29T09:55:30.454Z,55.70
2022-09-29T09:57:57.610Z,58.00
2022-09-29T10:00:36.745Z,59.30
2022-09-29T10:03:07.071Z,60.60
2022-09-29T10:05:43.090Z,60.10
2022-09-29T10:08:23.632Z,59.70
2022-09-29T10:10:58.717Z,58.20
2022-09-29T10:13:31.412Z,57.20
2022-09-29T10:16:21.380Z,56.90
2022-09-29T10:18:55.238Z,57.20
2022-09-29T10:21:31.227Z,56.80
2022-09-29T10:24:02.274Z,57.30
2022-09-29T10:26:43.884Z,57.50
2022-09-29T10:29:31.680Z,57.00
2022-09-29T10:32:07.558Z,56.90
2022-09-29T10:34:42.031Z,56.50
2022-09-29T10:37:35.209Z,55.10
2022-09-29T10:40:08.327Z,54.20
2022-09-29T10:42:37.545Z,54.30
2022-09-29T10:45:19.642Z,54.60
2022-09-29T10:47:57.451Z,56.10
2022-09-29T10:50:34.859Z,59.20
2022-09-29T10:53:17.604Z,59.10
2022-09-29T10:55:52.092Z,59.70
2022-09-29T10:58:57.594Z,59.40
2022-09-29T11:01:19.046Z,59.30
2022-09-29T11:04:15.927Z,61.10
2022-09-29T11:06:44.405Z,62.80
2022-09-29T11:09:15.945Z,63.60
2022-09-29T11:11:56.555Z,63.80
2022-09-29T11:14:37.468Z,63.60
2022-09-29T11:17:33.002Z,63.60
2022-09-29T11:20:02.913Z,63.10
2022-09-29T11:22:54.894Z,62.80
2022-09-29T11:25:48.158Z,62.60
2022-09-29T11:28:25.423Z,60.40
2022-09-29T11:31:12.010Z,59.70
2022-09-29T11:33:47.132Z,59.30
2022-09-29T11:36:43.352Z,58.40
2022-09-29T11:39:38.663Z,57.80
2022-09-29T11:42:36.375Z,57.70
2022-09-29T11:45:08.559Z,58.40
2022-09-29T11:47:45.190Z,58.90
2022-09-29T11:50:18.720Z,59.10
2022-09-29T11:53:04.448Z,59.30
2022-09-29T11:55:50.297Z,61.10
2022-09-29T11:58:38.985Z,63.50
2022-09-29T12:01:25.226Z,68.00
2022-09-29T12:04:17.086Z,71.80
2022-09-29T12:07:10.116Z,74.90
2022-09-29T12:10:06.099Z,76.00
2022-09-29T12:12:46.447Z,77.20
2022-09-29T12:15:46.125Z,78.30
2022-09-29T12:18:24.292Z,81.10
2022-09-29T12:20:54.824Z,82.50
2022-09-29T12:23:25.392Z,84.70
2022-09-29T12:26:01.781Z,84.70
2022-09-29T12:28:48.554Z,83.50
2022-09-29T12:31:28.664Z,84.90
2022-09-29T12:34:21.338Z,84.60
2022-09-29T12:37:08.224Z,82.70
2022-09-29T12:39:56.812Z,80.80
2022-09-29T12:42:47.179Z,79.40
2022-09-29T12:45:46.556Z,77.20
2022-09-29T12:48:45.483Z,76.70
2022-09-29T12:51:15.399Z,75.50
2022-09-29T12:54:28.957Z,74.40
2022-09-29T12:57:04.994Z,72.60
2022-09-29T12:59:40.813Z,71.90
2022-09-29T13:02:23.383Z,70.60
2022-09-29T13:05:20.941Z,70.00
2022-09-29T13:07:57.419Z,70.20
2022-09-29T13:10:51.941Z,67.60
2022-09-29T13:13:40.481Z,65.60
2022-09-29T13:16:18.509Z,62.00
2022-09-29T13:19:39.341Z,52.60
2022-09-29T13:22:14.597Z,54.00
2022-09-29T13:25:13.829Z,54.60
2022-09-29T13:27:46.408Z,56.80
2022-09-29T13:30:43.233Z,58.60
2022-09-29T13:33:36.752Z,58.00
2022-09-29T13:36:04.363Z,58.30
2022-09-29T13:38:37.055Z,58.70
2022-09-29T13:41:24.618Z,58.90
2022-09-29T13:43:53.034Z,57.70
2022-09-29T13:46:32.517Z,57.30
2022-09-29T13:49:02.874Z,56.80
2022-09-29T13:51:50.609Z,57.20
2022-09-29T13:54:30.503Z,57.70
2022-09-29T13:57:16.202Z,57.40
2022-09-29T14:00:17.783Z,58.20
2022-09-29T14:03:01.817Z,58.90
2022-09-29T14:05:28.940Z,59.00
2022-09-29T14:07:56.290Z,59.40
2022-09-29T14:10:35.488Z,58.20
2022-09-29T14:13:11.999Z,58.20
2022-09-29T14:15:54.589Z,59.10
2022-09-29T14:18:33.050Z,59.10
2022-09-29T14:21:04.237Z,59.80
2022-09-29T14:23:52.195Z,60.30
2022-09-29T14:26:47.171Z,60.60
2022-09-29T14:29:28.847Z,60.10
2022-09-29T14:31:57.787Z,60.40
2022-09-29T14:34:29.109Z,60.40
2022-09-29T14:36:58.118Z,59.90
2022-09-29T14:39:27.318Z,59.60
2022-09-29T14:41:56.593Z,59.70
2022-09-29T14:44:51.042Z,59.90
2022-09-29T14:47:39.425Z,60.00
2022-09-29T14:50:52.874Z,60.30
2022-09-29T14:53:53.466Z,60.50
2022-09-29T14:56:47.827Z,61.00
2022-09-29T14:59:28.471Z,61.00
2022-09-29T15:02:18.759Z,61.10
2022-09-29T15:04:46.872Z,60.90
2022-09-29T15:07:39.235Z,60.90
2022-09-29T15:10:29.191Z,61.00
2022-09-29T15:13:23.900Z,61.40
2022-09-29T15:16:11.568Z,61.60
2022-09-29T15:19:12.066Z,61.60
2022-09-29T15:21:57.633Z,61.80
2022-09-29T15:25:03.410Z,61.30
2022-09-29T15:27:34.010Z,60.90
2022-09-29T15:30:01.368Z,60.60
2022-09-29T15:32:31.223Z,60.10
2022-09-29T15:35:07.343Z,60.10
2022-09-29T15:37:57.482Z,60.60
2022-09-29T15:40:27.251Z,61.10
2022-09-29T15:42:55.723Z,61.30
2022-09-29T15:45:27.551Z,61.80
2022-09-29T15:48:05.035Z,62.00
2022-09-29T15:50:35.710Z,62.10
2022-09-29T15:53:04.046Z,62.40
2022-09-29T15:55:32.141Z,62.90
2022-09-29T15:58:02.204Z,63.30
2022-09-29T16:00:38.187Z,63.70
2022-09-29T16:03:14.471Z,63.70
2022-09-29T16:06:07.240Z,63.90
2022-09-29T16:08:39.937Z,64.20
2022-09-29T16:11:21.830Z,64.60
2022-09-29T16:13:55.173Z,64.70
2022-09-29T16:16:34.314Z,64.80
2022-09-29T16:19:10.059Z,64.90
2022-09-29T16:21:38.714Z,66.60
2022-09-29T16:24:19.028Z,67.40
2022-09-29T16:26:52.669Z,67.90
2022-09-29T16:29:19.786Z,68.40
2022-09-29T16:31:48.658Z,68.90
2022-09-29T16:34:21.824Z,69.30
2022-09-29T16:36:50.062Z,69.70
2022-09-29T16:39:20.183Z,70.20
2022-09-29T16:41:52.855Z,70.60
2022-09-29T16:44:32.522Z,71.10
2022-09-29T16:47:10.409Z,71.30
2022-09-29T16:49:50.764Z,71.50
2022-09-29T16:52:26.929Z,71.90
2022-09-29T16:55:06.474Z,72.10
2022-09-29T16:57:37.965Z,71.90
2022-09-29T17:00:12.806Z,72.30
2022-09-29T17:02:40.084Z,72.70
2022-09-29T17:05:07.624Z,73.20
2022-09-29T17:07:43.523Z,73.40
2022-09-29T17:10:17.481Z,72.90
2022-09-29T17:12:45.151Z,71.10
2022-09-29T17:15:17.271Z,70.30
2022-09-29T17:17:49.919Z,69.40
2022-09-29T17:20:20.350Z,69.20
2022-09-29T17:22:49.047Z,68.80
2022-09-29T17:25:16.290Z,68.60
2022-09-29T17:28:03.272Z,68.30
2022-09-29T17:30:30.502Z,68.40
2022-09-29T17:32:59.057Z,68.50
2022-09-29T17:35:32.535Z,68.70
2022-09-29T17:38:00.089Z,68.90
2022-09-29T17:40:42.999Z,68.90
2022-09-29T17:43:10.111Z,69.20
2022-09-29T17:45:43.732Z,69.20
2022-09-29T17:48:10.991Z,69.30
2022-09-29T17:50:48.941Z,69.40
2022-09-29T17:53:16.764Z,69.60
2022-09-29T17:55:48.377Z,69.80
2022-09-29T17:58:17.048Z,69.90
2022-09-29T18:00:48.800Z,70.20
2022-09-29T18:03:17.401Z,70.50
2022-09-29T18:05:55.917Z,70.50
2022-09-29T18:08:25.624Z,70.60
2022-09-29T18:10:52.888Z,70.60
2022-09-29T18:13:21.915Z,70.80
2022-09-29T18:15:49.708Z,70.90
2022-09-29T18:18:20.723Z,71.00
2022-09-29T18:20:50.347Z,71.00
2022-09-29T18:23:19.410Z,71.20
2022-09-29T18:25:50.075Z,71.50
2022-09-29T18:28:18.195Z,71.60
2022-09-29T18:30:49.023Z,72.00
2022-09-29T18:33:18.981Z,72.10
2022-09-29T18:35:52.437Z,72.40
2022-09-29T18:38:19.884Z,72.90
2022-09-29T18:40:47.597Z,73.00
2022-09-29T18:43:15.280Z,73.10
2022-09-29T18:45:44.197Z,72.90
2022-09-29T18:48:13.604Z,72.50
2022-09-29T18:50:48.937Z,72.70
2022-09-29T18:53:19.650Z,72.80
2022-09-29T18:55:49.701Z,72.40
2022-09-29T18:58:19.147Z,72.30
2022-09-29T19:00:53.847Z,72.20
2022-09-29T19:03:26.603Z,71.90
2022-09-29T19:05:55.158Z,71.40
2022-09-29T19:08:22.731Z,71.00
2022-09-29T19:10:52.731Z,70.80
2022-09-29T19:13:20.319Z,70.70
2022-09-29T19:15:48.435Z,70.00
2022-09-29T19:18:24.597Z,69.60
2022-09-29T19:20:54.495Z,69.10
2022-09-29T19:23:23.021Z,68.30
2022-09-29T19:25:51.684Z,67.80
2022-09-29T19:28:20.653Z,68.10
2022-09-29T19:30:48.431Z,67.70
2022-09-29T19:33:20.757Z,68.10
2022-09-29T19:35:54.499Z,67.90
2022-09-29T19:38:24.520Z,68.00
2022-09-29T19:40:51.914Z,67.90
2022-09-29T19:43:21.577Z,67.70
2022-09-29T19:45:50.278Z,67.80
2022-09-29T19:48:21.855Z,67.50
2022-09-29T19:51:14.446Z,67.00
2022-09-29T19:53:44.471Z,66.60
2022-09-29T19:56:16.570Z,66.40
2022-09-29T19:58:43.700Z,66.70
2022-09-29T20:01:11.940Z,66.80
2022-09-29T20:03:39.999Z,67.20
2022-09-29T20:06:07.136Z,67.30
2022-09-29T20:08:34.847Z,67.80
2022-09-29T20:11:09.612Z,67.90
2022-09-29T20:13:37.354Z,68.20
2022-09-29T20:16:06.010Z,68.20
2022-09-29T20:18:37.415Z,68.40
2022-09-29T20:21:09.930Z,68.30
2022-09-29T20:23:40.456Z,68.50
2022-09-29T20:26:10.119Z,68.80
2022-09-29T20:28:38.377Z,69.00
2022-09-29T20:31:07.801Z,69.00
2022-09-29T20:33:36.742Z,69.20
2022-09-29T20:36:05.698Z,69.40
2022-09-29T20:38:40.924Z,69.70
2022-09-29T20:41:08.523Z,69.90
2022-09-29T20:43:36.768Z,70.00
2022-09-29T20:46:07.576Z,70.20
2022-09-29T20:48:37.346Z,70.10
2022-09-29T20:51:10.196Z,70.10
2022-09-29T20:53:40.438Z,70.40
2022-09-29T20:56:16.977Z,71.20
2022-09-29T20:58:46.277Z,71.70
2022-09-29T21:01:23.940Z,72.30
2022-09-29T21:04:08.064Z,72.60
2022-09-29T21:06:38.529Z,72.50
2022-09-29T21:09:07.788Z,72.70
2022-09-29T21:11:40.131Z,73.00
2022-09-29T21:14:13.546Z,73.30
2022-09-29T21:16:42.002Z,73.70
2022-09-29T21:19:09.985Z,74.20
2022-09-29T21:21:38.011Z,74.50
2022-09-29T21:24:05.841Z,74.90
2022-09-29T21:26:34.140Z,75.30
2022-09-29T21:29:02.193Z,75.60
2022-09-29T21:31:32.829Z,76.00
2022-09-29T21:34:06.103Z,76.40
2022-09-29T21:36:36.075Z,76.80
2022-09-29T21:39:08.667Z,77.30
2022-09-29T21:41:41.723Z,77.60
2022-09-29T21:44:14.274Z,77.90
2022-09-29T21:46:43.208Z,78.20
2022-09-29T21:49:13.327Z,78.50
2022-09-29T21:51:43.069Z,78.70
2022-09-29T21:54:13.980Z,78.80
2022-09-29T21:56:43.091Z,79.10
2022-09-29T21:59:11.658Z,79.20
2022-09-29T22:01:40.325Z,79.10
2022-09-29T22:04:08.971Z,79.20
2022-09-29T22:06:37.731Z,79.30
2022-09-29T22:09:07.434Z,79.40
2022-09-29T22:11:36.902Z,79.60
2022-09-29T22:14:05.530Z,79.80
2022-09-29T22:16:34.838Z,80.10
2022-09-29T22:21:52.467Z,80.30
2022-09-29T22:24:19.771Z,80.50
2022-09-29T22:26:48.233Z,80.60
2022-09-29T22:29:15.434Z,80.90
2022-09-29T22:31:42.753Z,80.90
2022-09-29T22:34:11.680Z,81.10
2022-09-29T22:36:39.455Z,81.10
2022-09-29T22:39:07.334Z,81.40
2022-09-29T22:41:37.013Z,81.50
2022-09-29T22:44:04.804Z,81.40
2022-09-29T22:46:33.190Z,81.20
2022-09-29T22:49:00.483Z,81.30
2022-09-29T22:51:28.784Z,81.40
2022-09-29T22:53:56.054Z,81.20
2022-09-29T22:56:30.798Z,81.40
2022-09-29T22:59:02.698Z,81.50
2022-09-29T23:01:30.239Z,81.50
2022-09-29T23:03:57.460Z,81.80
2022-09-29T23:06:25.101Z,81.70
2022-09-29T23:08:54.533Z,81.40
2022-09-29T23:11:21.921Z,81.40
2022-09-29T23:13:49.230Z,81.70
2022-09-29T23:16:17.302Z,81.30
2022-09-29T23:18:45.883Z,81.40
2022-09-29T23:21:19.691Z,81.60
2022-09-29T23:23:48.388Z,82.00
2022-09-29T23:26:16.484Z,82.50
2022-09-29T23:28:43.867Z,83.00
2022-09-29T23:31:11.548Z,83.20
2022-09-29T23:33:38.864Z,83.30
2022-09-29T23:36:15.732Z,83.70
2022-09-29T23:39:02.888Z,84.30
2022-09-29T23:41:31.558Z,84.80
2022-09-29T23:44:03.034Z,85.10
2022-09-29T23:46:31.852Z,85.30
2022-09-29T23:49:00.254Z,85.80
2022-09-29T23:51:31.258Z,85.90
2022-09-29T23:53:59.377Z,86.10
2022-09-29T23:56:27.219Z,86.20
2022-09-29T23:58:56.699Z,85.90
